sensor_id;sensor_type;location;lat;lon;timestamp;temperature;humidity
3816;DHT22;1923;48.154;11.536;2023-12-20T00:01:22;7.90;94.80
3816;DHT22;1923;48.154;11.536;2023-12-20T00:03:51;8.00;95.50
3816;DHT22;1923;48.154;11.536;2023-12-20T00:06:19;8.10;95.60
3816;DHT22;1923;48.154;11.536;2023-12-20T00:08:49;8.00;95.50
3816;DHT22;1923;48.154;11.536;2023-12-20T00:11:17;8.00;95.20
3816;DHT22;1923;48.154;11.536;2023-12-20T00:13:45;7.90;95.30
3816;DHT22;1923;48.154;11.536;2023-12-20T00:16:17;8.00;95.60
3816;DHT22;1923;48.154;11.536;2023-12-20T00:18:46;7.80;96.00
3816;DHT22;1923;48.154;11.536;2023-12-20T00:21:14;8.00;96.20
3816;DHT22;1923;48.154;11.536;2023-12-20T00:23:42;8.00;96.30
3816;DHT22;1923;48.154;11.536;2023-12-20T00:26:11;8.00;96.50
3816;DHT22;1923;48.154;11.536;2023-12-20T00:28:39;8.00;96.50
3816;DHT22;1923;48.154;11.536;2023-12-20T00:31:07;8.10;96.70
3816;DHT22;1923;48.154;11.536;2023-12-20T00:33:35;8.00;96.40
3816;DHT22;1923;48.154;11.536;2023-12-20T00:36:04;8.00;96.80
3816;DHT22;1923;48.154;11.536;2023-12-20T00:38:32;8.10;96.70
3816;DHT22;1923;48.154;11.536;2023-12-20T00:41:00;8.10;96.50
3816;DHT22;1923;48.154;11.536;2023-12-20T00:43:30;8.10;96.40
3816;DHT22;1923;48.154;11.536;2023-12-20T00:45:58;8.10;95.60
3816;DHT22;1923;48.154;11.536;2023-12-20T00:48:27;8.10;95.50
3816;DHT22;1923;48.154;11.536;2023-12-20T00:50:57;8.10;95.10
3816;DHT22;1923;48.154;11.536;2023-12-20T00:53:25;8.20;95.80
3816;DHT22;1923;48.154;11.536;2023-12-20T00:55:53;8.20;95.00
3816;DHT22;1923;48.154;11.536;2023-12-20T00:58:21;8.20;95.20
3816;DHT22;1923;48.154;11.536;2023-12-20T01:00:51;8.30;95.20
3816;DHT22;1923;48.154;11.536;2023-12-20T01:03:19;8.20;94.50
3816;DHT22;1923;48.154;11.536;2023-12-20T01:05:47;8.30;94.70
3816;DHT22;1923;48.154;11.536;2023-12-20T01:08:15;8.20;94.50
3816;DHT22;1923;48.154;11.536;2023-12-20T01:10:43;8.30;94.50
3816;DHT22;1923;48.154;11.536;2023-12-20T01:13:13;8.30;94.50
3816;DHT22;1923;48.154;11.536;2023-12-20T01:15:41;8.30;95.00
3816;DHT22;1923;48.154;11.536;2023-12-20T01:18:11;8.40;95.60
3816;DHT22;1923;48.154;11.536;2023-12-20T01:20:39;8.40;94.90
3816;DHT22;1923;48.154;11.536;2023-12-20T01:23:07;8.40;95.10
3816;DHT22;1923;48.154;11.536;2023-12-20T01:25:35;8.40;94.60
3816;DHT22;1923;48.154;11.536;2023-12-20T01:28:04;8.40;95.20
3816;DHT22;1923;48.154;11.536;2023-12-20T01:30:32;8.40;94.80
3816;DHT22;1923;48.154;11.536;2023-12-20T01:33:00;8.30;94.90
3816;DHT22;1923;48.154;11.536;2023-12-20T01:35:30;8.30;95.10
3816;DHT22;1923;48.154;11.536;2023-12-20T01:37:58;8.20;95.00
3816;DHT22;1923;48.154;11.536;2023-12-20T01:40:26;8.20;95.30
3816;DHT22;1923;48.154;11.536;2023-12-20T01:43:01;8.20;95.20
3816;DHT22;1923;48.154;11.536;2023-12-20T01:45:29;8.20;95.50
3816;DHT22;1923;48.154;11.536;2023-12-20T01:47:59;8.20;95.90
3816;DHT22;1923;48.154;11.536;2023-12-20T01:50:30;8.20;95.50
3816;DHT22;1923;48.154;11.536;2023-12-20T01:53:00;8.20;96.10
3816;DHT22;1923;48.154;11.536;2023-12-20T01:55:31;8.20;96.00
3816;DHT22;1923;48.154;11.536;2023-12-20T01:57:59;8.20;95.80
3816;DHT22;1923;48.154;11.536;2023-12-20T02:00:28;8.20;96.20
3816;DHT22;1923;48.154;11.536;2023-12-20T02:03:00;8.30;96.50
3816;DHT22;1923;48.154;11.536;2023-12-20T02:05:30;8.30;96.10
3816;DHT22;1923;48.154;11.536;2023-12-20T02:07:58;8.40;96.40
3816;DHT22;1923;48.154;11.536;2023-12-20T02:10:27;8.40;96.90
3816;DHT22;1923;48.154;11.536;2023-12-20T02:12:56;8.40;96.80
3816;DHT22;1923;48.154;11.536;2023-12-20T02:15:24;8.40;96.30
3816;DHT22;1923;48.154;11.536;2023-12-20T02:17:52;8.50;96.90
3816;DHT22;1923;48.154;11.536;2023-12-20T02:20:20;8.50;97.00
3816;DHT22;1923;48.154;11.536;2023-12-20T02:22:50;8.40;95.90
3816;DHT22;1923;48.154;11.536;2023-12-20T02:25:18;8.40;96.40
3816;DHT22;1923;48.154;11.536;2023-12-20T02:27:46;8.30;96.50
3816;DHT22;1923;48.154;11.536;2023-12-20T02:30:15;8.40;96.60
3816;DHT22;1923;48.154;11.536;2023-12-20T02:32:43;8.40;96.30
3816;DHT22;1923;48.154;11.536;2023-12-20T02:35:11;8.40;96.40
3816;DHT22;1923;48.154;11.536;2023-12-20T02:37:39;8.50;96.80
3816;DHT22;1923;48.154;11.536;2023-12-20T02:40:09;8.50;97.30
3816;DHT22;1923;48.154;11.536;2023-12-20T02:42:41;8.50;97.10
3816;DHT22;1923;48.154;11.536;2023-12-20T02:45:09;8.60;97.70
3816;DHT22;1923;48.154;11.536;2023-12-20T02:47:37;8.50;97.50
3816;DHT22;1923;48.154;11.536;2023-12-20T02:50:06;8.60;97.70
3816;DHT22;1923;48.154;11.536;2023-12-20T02:52:34;8.60;98.10
3816;DHT22;1923;48.154;11.536;2023-12-20T02:55:03;8.50;98.20
3816;DHT22;1923;48.154;11.536;2023-12-20T02:57:32;8.60;98.30
3816;DHT22;1923;48.154;11.536;2023-12-20T03:00:03;8.60;98.50
3816;DHT22;1923;48.154;11.536;2023-12-20T03:02:31;8.60;98.70
3816;DHT22;1923;48.154;11.536;2023-12-20T03:04:59;8.70;98.80
3816;DHT22;1923;48.154;11.536;2023-12-20T03:07:27;8.60;99.20
3816;DHT22;1923;48.154;11.536;2023-12-20T03:09:55;8.60;99.00
3816;DHT22;1923;48.154;11.536;2023-12-20T03:12:45;8.60;99.30
3816;DHT22;1923;48.154;11.536;2023-12-20T03:15:13;8.40;99.60
3816;DHT22;1923;48.154;11.536;2023-12-20T03:17:41;8.50;99.90
3816;DHT22;1923;48.154;11.536;2023-12-20T03:20:10;8.50;99.90
3816;DHT22;1923;48.154;11.536;2023-12-20T03:22:38;8.50;99.90
3816;DHT22;1923;48.154;11.536;2023-12-20T03:25:06;8.40;99.90
3816;DHT22;1923;48.154;11.536;2023-12-20T03:27:37;8.50;99.90
3816;DHT22;1923;48.154;11.536;2023-12-20T03:30:07;8.60;99.90
3816;DHT22;1923;48.154;11.536;2023-12-20T03:32:36;8.60;99.90
3816;DHT22;1923;48.154;11.536;2023-12-20T03:35:05;8.60;99.90
3816;DHT22;1923;48.154;11.536;2023-12-20T03:37:33;8.60;99.90
3816;DHT22;1923;48.154;11.536;2023-12-20T03:40:01;8.60;99.90
3816;DHT22;1923;48.154;11.536;2023-12-20T03:42:29;8.60;99.90
3816;DHT22;1923;48.154;11.536;2023-12-20T03:44:58;8.60;99.90
3816;DHT22;1923;48.154;11.536;2023-12-20T03:47:27;8.70;99.90
3816;DHT22;1923;48.154;11.536;2023-12-20T03:49:55;8.70;99.90
3816;DHT22;1923;48.154;11.536;2023-12-20T03:52:23;8.70;99.90
3816;DHT22;1923;48.154;11.536;2023-12-20T03:54:51;8.70;99.90
3816;DHT22;1923;48.154;11.536;2023-12-20T03:57:20;8.70;99.90
3816;DHT22;1923;48.154;11.536;2023-12-20T03:59:48;8.70;99.90
3816;DHT22;1923;48.154;11.536;2023-12-20T04:02:16;8.70;99.90
3816;DHT22;1923;48.154;11.536;2023-12-20T04:04:46;8.70;99.90
3816;DHT22;1923;48.154;11.536;2023-12-20T04:07:14;8.70;99.90
3816;DHT22;1923;48.154;11.536;2023-12-20T04:09:43;8.60;99.90
3816;DHT22;1923;48.154;11.536;2023-12-20T04:12:11;8.60;99.90
3816;DHT22;1923;48.154;11.536;2023-12-20T04:14:39;8.60;99.90
3816;DHT22;1923;48.154;11.536;2023-12-20T04:17:07;8.60;99.90
3816;DHT22;1923;48.154;11.536;2023-12-20T04:19:35;8.50;99.90
3816;DHT22;1923;48.154;11.536;2023-12-20T04:22:04;8.40;99.90
3816;DHT22;1923;48.154;11.536;2023-12-20T04:24:32;8.40;99.90
3816;DHT22;1923;48.154;11.536;2023-12-20T04:27:01;8.40;99.90
3816;DHT22;1923;48.154;11.536;2023-12-20T04:29:29;8.30;99.90
3816;DHT22;1923;48.154;11.536;2023-12-20T04:31:57;8.30;99.90
3816;DHT22;1923;48.154;11.536;2023-12-20T04:34:25;8.20;99.90
3816;DHT22;1923;48.154;11.536;2023-12-20T04:36:53;8.30;99.90
3816;DHT22;1923;48.154;11.536;2023-12-20T04:39:23;8.30;99.90
3816;DHT22;1923;48.154;11.536;2023-12-20T04:41:51;8.20;99.90
3816;DHT22;1923;48.154;11.536;2023-12-20T04:44:19;8.20;99.90
3816;DHT22;1923;48.154;11.536;2023-12-20T04:46:47;8.20;99.90
3816;DHT22;1923;48.154;11.536;2023-12-20T04:49:15;8.10;99.90
3816;DHT22;1923;48.154;11.536;2023-12-20T04:51:43;8.10;99.90
3816;DHT22;1923;48.154;11.536;2023-12-20T04:54:11;8.00;99.90
3816;DHT22;1923;48.154;11.536;2023-12-20T04:56:41;8.00;99.90
3816;DHT22;1923;48.154;11.536;2023-12-20T04:59:09;8.00;99.90
3816;DHT22;1923;48.154;11.536;2023-12-20T05:01:38;8.00;99.90
3816;DHT22;1923;48.154;11.536;2023-12-20T05:04:06;7.90;99.90
3816;DHT22;1923;48.154;11.536;2023-12-20T05:06:34;7.90;99.90
3816;DHT22;1923;48.154;11.536;2023-12-20T05:09:03;8.00;99.90
3816;DHT22;1923;48.154;11.536;2023-12-20T05:11:31;7.90;99.90
3816;DHT22;1923;48.154;11.536;2023-12-20T05:14:00;7.80;99.90
3816;DHT22;1923;48.154;11.536;2023-12-20T05:16:28;7.80;99.90
3816;DHT22;1923;48.154;11.536;2023-12-20T05:18:56;7.70;99.90
3816;DHT22;1923;48.154;11.536;2023-12-20T05:21:26;7.60;99.90
3816;DHT22;1923;48.154;11.536;2023-12-20T05:23:54;7.70;99.90
3816;DHT22;1923;48.154;11.536;2023-12-20T05:26:22;7.60;99.90
3816;DHT22;1923;48.154;11.536;2023-12-20T05:28:50;7.70;99.90
3816;DHT22;1923;48.154;11.536;2023-12-20T05:31:20;7.70;99.90
3816;DHT22;1923;48.154;11.536;2023-12-20T05:33:48;7.60;99.90
3816;DHT22;1923;48.154;11.536;2023-12-20T05:36:17;7.60;99.90
3816;DHT22;1923;48.154;11.536;2023-12-20T05:38:45;7.50;99.90
3816;DHT22;1923;48.154;11.536;2023-12-20T05:41:13;7.40;99.90
3816;DHT22;1923;48.154;11.536;2023-12-20T05:43:41;7.40;99.90
3816;DHT22;1923;48.154;11.536;2023-12-20T05:46:10;7.40;99.90
3816;DHT22;1923;48.154;11.536;2023-12-20T05:48:40;7.30;99.90
3816;DHT22;1923;48.154;11.536;2023-12-20T05:51:11;7.20;99.90
3816;DHT22;1923;48.154;11.536;2023-12-20T05:53:39;7.20;99.90
3816;DHT22;1923;48.154;11.536;2023-12-20T05:56:07;7.20;99.90
3816;DHT22;1923;48.154;11.536;2023-12-20T05:58:36;7.20;99.90
3816;DHT22;1923;48.154;11.536;2023-12-20T06:01:04;7.10;99.90
3816;DHT22;1923;48.154;11.536;2023-12-20T06:03:34;7.10;99.90
3816;DHT22;1923;48.154;11.536;2023-12-20T06:06:06;7.10;99.90
3816;DHT22;1923;48.154;11.536;2023-12-20T06:08:42;7.00;99.90
3816;DHT22;1923;48.154;11.536;2023-12-20T06:11:11;7.00;99.90
3816;DHT22;1923;48.154;11.536;2023-12-20T06:13:40;7.00;99.90
3816;DHT22;1923;48.154;11.536;2023-12-20T06:16:08;6.90;99.90
3816;DHT22;1923;48.154;11.536;2023-12-20T06:18:36;6.90;99.90
3816;DHT22;1923;48.154;11.536;2023-12-20T06:21:06;6.80;99.90
3816;DHT22;1923;48.154;11.536;2023-12-20T06:23:35;6.70;99.90
3816;DHT22;1923;48.154;11.536;2023-12-20T06:26:03;6.70;99.90
3816;DHT22;1923;48.154;11.536;2023-12-20T06:28:31;6.60;99.90
3816;DHT22;1923;48.154;11.536;2023-12-20T06:30:59;6.70;99.90
3816;DHT22;1923;48.154;11.536;2023-12-20T06:33:27;6.60;99.90
3816;DHT22;1923;48.154;11.536;2023-12-20T06:35:56;6.60;99.90
3816;DHT22;1923;48.154;11.536;2023-12-20T06:38:25;6.60;99.90
3816;DHT22;1923;48.154;11.536;2023-12-20T06:40:54;6.60;99.90
3816;DHT22;1923;48.154;11.536;2023-12-20T06:43:24;6.60;99.90
3816;DHT22;1923;48.154;11.536;2023-12-20T06:46:12;6.50;99.90
3816;DHT22;1923;48.154;11.536;2023-12-20T06:48:41;6.50;99.90
3816;DHT22;1923;48.154;11.536;2023-12-20T06:51:12;6.50;99.90
3816;DHT22;1923;48.154;11.536;2023-12-20T06:53:41;6.50;99.90
3816;DHT22;1923;48.154;11.536;2023-12-20T06:56:11;6.50;99.90
3816;DHT22;1923;48.154;11.536;2023-12-20T06:58:44;6.50;99.90
3816;DHT22;1923;48.154;11.536;2023-12-20T07:01:12;6.40;99.90
3816;DHT22;1923;48.154;11.536;2023-12-20T07:03:41;6.30;99.90
3816;DHT22;1923;48.154;11.536;2023-12-20T07:06:09;6.40;99.90
3816;DHT22;1923;48.154;11.536;2023-12-20T07:08:38;6.40;99.90
3816;DHT22;1923;48.154;11.536;2023-12-20T07:11:08;6.30;99.90
3816;DHT22;1923;48.154;11.536;2023-12-20T07:13:36;6.20;99.90
3816;DHT22;1923;48.154;11.536;2023-12-20T07:16:04;6.20;99.90
3816;DHT22;1923;48.154;11.536;2023-12-20T07:18:32;6.20;99.90
3816;DHT22;1923;48.154;11.536;2023-12-20T07:21:01;6.20;99.90
3816;DHT22;1923;48.154;11.536;2023-12-20T07:23:29;6.20;99.90
3816;DHT22;1923;48.154;11.536;2023-12-20T07:25:57;6.20;99.90
3816;DHT22;1923;48.154;11.536;2023-12-20T07:28:26;6.20;99.90
3816;DHT22;1923;48.154;11.536;2023-12-20T07:30:54;6.20;99.90
3816;DHT22;1923;48.154;11.536;2023-12-20T07:33:23;6.30;99.90
3816;DHT22;1923;48.154;11.536;2023-12-20T07:35:51;6.20;99.90
3816;DHT22;1923;48.154;11.536;2023-12-20T07:38:19;6.30;99.90
3816;DHT22;1923;48.154;11.536;2023-12-20T07:40:47;6.30;99.90
3816;DHT22;1923;48.154;11.536;2023-12-20T07:43:15;6.20;99.90
3816;DHT22;1923;48.154;11.536;2023-12-20T07:45:45;6.30;99.90
3816;DHT22;1923;48.154;11.536;2023-12-20T07:48:13;6.30;99.90
3816;DHT22;1923;48.154;11.536;2023-12-20T07:50:42;6.40;99.90
3816;DHT22;1923;48.154;11.536;2023-12-20T07:53:10;6.40;99.90
3816;DHT22;1923;48.154;11.536;2023-12-20T07:55:39;6.30;99.90
3816;DHT22;1923;48.154;11.536;2023-12-20T07:58:07;6.40;99.90
3816;DHT22;1923;48.154;11.536;2023-12-20T08:00:35;6.50;99.90
3816;DHT22;1923;48.154;11.536;2023-12-20T08:03:06;6.50;99.90
3816;DHT22;1923;48.154;11.536;2023-12-20T08:05:38;6.40;99.90
3816;DHT22;1923;48.154;11.536;2023-12-20T08:08:07;6.30;99.90
3816;DHT22;1923;48.154;11.536;2023-12-20T08:10:35;6.30;99.90
3816;DHT22;1923;48.154;11.536;2023-12-20T08:13:04;6.30;99.90
3816;DHT22;1923;48.154;11.536;2023-12-20T08:15:32;6.40;99.90
3816;DHT22;1923;48.154;11.536;2023-12-20T08:18:00;6.40;99.90
3816;DHT22;1923;48.154;11.536;2023-12-20T08:20:29;6.40;99.90
3816;DHT22;1923;48.154;11.536;2023-12-20T08:23:06;6.40;99.90
3816;DHT22;1923;48.154;11.536;2023-12-20T08:25:34;6.30;99.90
3816;DHT22;1923;48.154;11.536;2023-12-20T08:28:02;6.30;99.90
3816;DHT22;1923;48.154;11.536;2023-12-20T08:30:31;6.30;99.90
3816;DHT22;1923;48.154;11.536;2023-12-20T08:33:00;6.30;99.90
3816;DHT22;1923;48.154;11.536;2023-12-20T08:35:30;6.30;99.90
3816;DHT22;1923;48.154;11.536;2023-12-20T08:37:58;6.30;99.90
3816;DHT22;1923;48.154;11.536;2023-12-20T08:40:26;6.30;99.90
3816;DHT22;1923;48.154;11.536;2023-12-20T08:42:54;6.40;99.90
3816;DHT22;1923;48.154;11.536;2023-12-20T08:45:22;6.50;99.90
3816;DHT22;1923;48.154;11.536;2023-12-20T08:47:51;6.50;99.90
3816;DHT22;1923;48.154;11.536;2023-12-20T08:50:19;6.60;99.90
3816;DHT22;1923;48.154;11.536;2023-12-20T08:52:49;6.60;99.90
3816;DHT22;1923;48.154;11.536;2023-12-20T08:55:17;6.70;99.90
3816;DHT22;1923;48.154;11.536;2023-12-20T08:57:45;6.70;99.90
3816;DHT22;1923;48.154;11.536;2023-12-20T09:00:15;6.80;99.90
3816;DHT22;1923;48.154;11.536;2023-12-20T09:02:43;6.80;99.90
3816;DHT22;1923;48.154;11.536;2023-12-20T09:05:11;6.80;99.90
3816;DHT22;1923;48.154;11.536;2023-12-20T09:07:39;6.80;99.90
3816;DHT22;1923;48.154;11.536;2023-12-20T09:10:09;6.90;99.90
3816;DHT22;1923;48.154;11.536;2023-12-20T09:12:37;7.00;99.90
3816;DHT22;1923;48.154;11.536;2023-12-20T09:15:08;7.10;99.90
3816;DHT22;1923;48.154;11.536;2023-12-20T09:17:36;7.10;99.90
3816;DHT22;1923;48.154;11.536;2023-12-20T09:20:05;7.10;99.90
3816;DHT22;1923;48.154;11.536;2023-12-20T09:22:35;7.20;99.90
3816;DHT22;1923;48.154;11.536;2023-12-20T09:25:05;7.30;99.90
3816;DHT22;1923;48.154;11.536;2023-12-20T09:27:35;7.40;99.90
3816;DHT22;1923;48.154;11.536;2023-12-20T09:30:04;7.40;99.90
3816;DHT22;1923;48.154;11.536;2023-12-20T09:32:33;7.40;99.90
3816;DHT22;1923;48.154;11.536;2023-12-20T09:35:01;7.50;99.90
3816;DHT22;1923;48.154;11.536;2023-12-20T09:37:30;7.50;99.90
3816;DHT22;1923;48.154;11.536;2023-12-20T09:39:58;7.50;99.90
3816;DHT22;1923;48.154;11.536;2023-12-20T09:42:33;7.50;99.90
3816;DHT22;1923;48.154;11.536;2023-12-20T09:45:08;7.50;99.90
3816;DHT22;1923;48.154;11.536;2023-12-20T09:47:37;7.40;99.90
3816;DHT22;1923;48.154;11.536;2023-12-20T09:50:06;7.40;99.90
3816;DHT22;1923;48.154;11.536;2023-12-20T09:52:36;7.50;99.90
3816;DHT22;1923;48.154;11.536;2023-12-20T09:55:04;7.50;99.90
3816;DHT22;1923;48.154;11.536;2023-12-20T09:57:34;7.50;99.90
3816;DHT22;1923;48.154;11.536;2023-12-20T10:00:02;7.60;99.90
3816;DHT22;1923;48.154;11.536;2023-12-20T10:02:32;7.50;99.90
3816;DHT22;1923;48.154;11.536;2023-12-20T10:05:02;7.50;99.90
3816;DHT22;1923;48.154;11.536;2023-12-20T10:07:35;7.60;99.90
3816;DHT22;1923;48.154;11.536;2023-12-20T10:10:05;7.60;99.90
3816;DHT22;1923;48.154;11.536;2023-12-20T10:12:33;7.70;99.90
3816;DHT22;1923;48.154;11.536;2023-12-20T10:15:01;7.80;99.90
3816;DHT22;1923;48.154;11.536;2023-12-20T10:17:32;8.00;99.90
3816;DHT22;1923;48.154;11.536;2023-12-20T10:20:00;8.10;99.90
3816;DHT22;1923;48.154;11.536;2023-12-20T10:22:29;8.20;99.90
3816;DHT22;1923;48.154;11.536;2023-12-20T10:24:57;8.40;99.90
3816;DHT22;1923;48.154;11.536;2023-12-20T10:27:26;8.60;99.90
3816;DHT22;1923;48.154;11.536;2023-12-20T10:29:54;8.80;99.90
3816;DHT22;1923;48.154;11.536;2023-12-20T10:32:23;8.80;99.90
3816;DHT22;1923;48.154;11.536;2023-12-20T10:34:54;8.70;99.90
3816;DHT22;1923;48.154;11.536;2023-12-20T10:37:23;8.80;99.90
3816;DHT22;1923;48.154;11.536;2023-12-20T10:39:52;8.80;99.90
3816;DHT22;1923;48.154;11.536;2023-12-20T10:42:26;8.90;99.90
3816;DHT22;1923;48.154;11.536;2023-12-20T10:44:54;8.80;99.90
3816;DHT22;1923;48.154;11.536;2023-12-20T10:47:22;8.70;99.90
3816;DHT22;1923;48.154;11.536;2023-12-20T10:49:54;8.60;99.90
3816;DHT22;1923;48.154;11.536;2023-12-20T10:52:24;8.50;99.90
3816;DHT22;1923;48.154;11.536;2023-12-20T10:54:53;8.40;99.90
3816;DHT22;1923;48.154;11.536;2023-12-20T10:57:22;8.40;99.90
3816;DHT22;1923;48.154;11.536;2023-12-20T10:59:54;8.30;99.90
3816;DHT22;1923;48.154;11.536;2023-12-20T11:02:22;8.30;99.90
3816;DHT22;1923;48.154;11.536;2023-12-20T11:04:55;8.20;99.90
3816;DHT22;1923;48.154;11.536;2023-12-20T11:07:32;8.20;99.90
3816;DHT22;1923;48.154;11.536;2023-12-20T11:10:16;8.10;99.90
3816;DHT22;1923;48.154;11.536;2023-12-20T11:12:49;8.00;99.90
3816;DHT22;1923;48.154;11.536;2023-12-20T11:15:19;8.00;99.90
3816;DHT22;1923;48.154;11.536;2023-12-20T11:17:54;8.00;99.90
3816;DHT22;1923;48.154;11.536;2023-12-20T11:20:35;8.00;99.90
3816;DHT22;1923;48.154;11.536;2023-12-20T11:23:04;8.10;99.90
3816;DHT22;1923;48.154;11.536;2023-12-20T11:25:46;8.10;99.90
3816;DHT22;1923;48.154;11.536;2023-12-20T11:28:15;8.10;99.90
3816;DHT22;1923;48.154;11.536;2023-12-20T11:30:49;8.10;99.90
3816;DHT22;1923;48.154;11.536;2023-12-20T11:37:02;8.20;99.90
3816;DHT22;1923;48.154;11.536;2023-12-20T11:39:31;8.30;99.90
3816;DHT22;1923;48.154;11.536;2023-12-20T11:42:04;8.50;99.90
3816;DHT22;1923;48.154;11.536;2023-12-20T11:44:33;8.60;99.90
3816;DHT22;1923;48.154;11.536;2023-12-20T11:47:01;8.60;99.90
3816;DHT22;1923;48.154;11.536;2023-12-20T11:49:29;8.50;99.90
3816;DHT22;1923;48.154;11.536;2023-12-20T11:51:57;8.60;99.90
3816;DHT22;1923;48.154;11.536;2023-12-20T11:54:30;8.70;99.90
3816;DHT22;1923;48.154;11.536;2023-12-20T11:56:58;8.70;99.90
3816;DHT22;1923;48.154;11.536;2023-12-20T11:59:27;8.80;99.90
3816;DHT22;1923;48.154;11.536;2023-12-20T12:01:55;8.70;99.90
3816;DHT22;1923;48.154;11.536;2023-12-20T12:04:28;8.70;99.90
3816;DHT22;1923;48.154;11.536;2023-12-20T12:06:56;8.70;99.90
3816;DHT22;1923;48.154;11.536;2023-12-20T12:09:24;8.70;99.90
3816;DHT22;1923;48.154;11.536;2023-12-20T12:11:54;8.60;99.90
3816;DHT22;1923;48.154;11.536;2023-12-20T12:14:22;8.40;99.90
3816;DHT22;1923;48.154;11.536;2023-12-20T12:16:50;8.50;99.90
3816;DHT22;1923;48.154;11.536;2023-12-20T12:19:20;8.50;99.90
3816;DHT22;1923;48.154;11.536;2023-12-20T12:21:49;8.50;99.90
3816;DHT22;1923;48.154;11.536;2023-12-20T12:24:20;8.60;99.90
3816;DHT22;1923;48.154;11.536;2023-12-20T12:26:57;8.70;99.90
3816;DHT22;1923;48.154;11.536;2023-12-20T12:29:25;8.70;99.90
3816;DHT22;1923;48.154;11.536;2023-12-20T12:31:53;8.70;99.90
3816;DHT22;1923;48.154;11.536;2023-12-20T12:34:21;8.60;99.90
3816;DHT22;1923;48.154;11.536;2023-12-20T12:36:50;8.60;99.90
3816;DHT22;1923;48.154;11.536;2023-12-20T12:39:18;8.70;99.90
3816;DHT22;1923;48.154;11.536;2023-12-20T12:41:46;8.70;99.90
3816;DHT22;1923;48.154;11.536;2023-12-20T12:44:16;8.70;99.90
3816;DHT22;1923;48.154;11.536;2023-12-20T12:46:44;8.60;99.90
3816;DHT22;1923;48.154;11.536;2023-12-20T12:49:13;8.70;99.90
3816;DHT22;1923;48.154;11.536;2023-12-20T12:51:41;8.70;99.90
3816;DHT22;1923;48.154;11.536;2023-12-20T12:54:10;8.60;99.90
3816;DHT22;1923;48.154;11.536;2023-12-20T12:56:39;8.60;99.90
3816;DHT22;1923;48.154;11.536;2023-12-20T12:59:08;8.50;99.90
3816;DHT22;1923;48.154;11.536;2023-12-20T13:01:38;8.60;99.90
3816;DHT22;1923;48.154;11.536;2023-12-20T13:04:06;8.60;99.90
3816;DHT22;1923;48.154;11.536;2023-12-20T13:06:38;8.40;99.90
3816;DHT22;1923;48.154;11.536;2023-12-20T13:09:08;8.20;99.90
3816;DHT22;1923;48.154;11.536;2023-12-20T13:11:36;8.00;99.90
3816;DHT22;1923;48.154;11.536;2023-12-20T13:14:04;7.80;99.90
3816;DHT22;1923;48.154;11.536;2023-12-20T13:16:32;7.50;99.90
3816;DHT22;1923;48.154;11.536;2023-12-20T13:19:02;7.40;99.90
3816;DHT22;1923;48.154;11.536;2023-12-20T13:21:31;7.20;99.90
3816;DHT22;1923;48.154;11.536;2023-12-20T13:23:59;7.00;99.90
3816;DHT22;1923;48.154;11.536;2023-12-20T13:26:27;6.90;99.90
3816;DHT22;1923;48.154;11.536;2023-12-20T13:28:56;6.70;99.90
3816;DHT22;1923;48.154;11.536;2023-12-20T13:31:24;6.70;99.90
3816;DHT22;1923;48.154;11.536;2023-12-20T13:33:52;6.70;99.90
3816;DHT22;1923;48.154;11.536;2023-12-20T13:36:22;6.70;99.90
3816;DHT22;1923;48.154;11.536;2023-12-20T13:38:50;6.70;99.90
3816;DHT22;1923;48.154;11.536;2023-12-20T13:41:18;6.70;99.90
3816;DHT22;1923;48.154;11.536;2023-12-20T13:43:46;6.70;99.90
3816;DHT22;1923;48.154;11.536;2023-12-20T13:46:14;6.80;99.90
3816;DHT22;1923;48.154;11.536;2023-12-20T13:48:42;6.90;99.90
3816;DHT22;1923;48.154;11.536;2023-12-20T13:51:10;6.90;99.90
3816;DHT22;1923;48.154;11.536;2023-12-20T13:53:39;6.90;99.90
3816;DHT22;1923;48.154;11.536;2023-12-20T13:56:08;6.90;99.90
3816;DHT22;1923;48.154;11.536;2023-12-20T13:58:35;7.00;99.90
3816;DHT22;1923;48.154;11.536;2023-12-20T14:01:04;7.10;99.90
3816;DHT22;1923;48.154;11.536;2023-12-20T14:03:32;7.10;99.90
3816;DHT22;1923;48.154;11.536;2023-12-20T14:06:00;7.10;99.90
3816;DHT22;1923;48.154;11.536;2023-12-20T14:08:29;7.10;99.90
3816;DHT22;1923;48.154;11.536;2023-12-20T14:10:58;7.10;99.90
3816;DHT22;1923;48.154;11.536;2023-12-20T14:13:28;7.00;99.90
3816;DHT22;1923;48.154;11.536;2023-12-20T14:15:56;6.90;99.90
3816;DHT22;1923;48.154;11.536;2023-12-20T14:18:25;6.90;99.90
3816;DHT22;1923;48.154;11.536;2023-12-20T14:20:54;6.80;99.90
3816;DHT22;1923;48.154;11.536;2023-12-20T14:23:22;6.80;99.90
3816;DHT22;1923;48.154;11.536;2023-12-20T14:25:50;6.90;99.90
3816;DHT22;1923;48.154;11.536;2023-12-20T14:28:20;7.00;99.90
3816;DHT22;1923;48.154;11.536;2023-12-20T14:30:48;7.10;99.90
3816;DHT22;1923;48.154;11.536;2023-12-20T14:33:17;7.20;99.90
3816;DHT22;1923;48.154;11.536;2023-12-20T14:35:47;7.20;99.90
3816;DHT22;1923;48.154;11.536;2023-12-20T14:38:15;7.10;99.90
3816;DHT22;1923;48.154;11.536;2023-12-20T14:40:43;7.10;99.90
3816;DHT22;1923;48.154;11.536;2023-12-20T14:43:11;7.00;99.90
3816;DHT22;1923;48.154;11.536;2023-12-20T14:45:41;7.00;99.90
3816;DHT22;1923;48.154;11.536;2023-12-20T14:48:09;6.90;99.90
3816;DHT22;1923;48.154;11.536;2023-12-20T14:50:37;6.80;99.90
3816;DHT22;1923;48.154;11.536;2023-12-20T14:53:07;6.90;99.90
3816;DHT22;1923;48.154;11.536;2023-12-20T14:55:35;6.90;99.90
3816;DHT22;1923;48.154;11.536;2023-12-20T14:58:04;7.10;99.90
3816;DHT22;1923;48.154;11.536;2023-12-20T15:00:32;7.00;99.90
3816;DHT22;1923;48.154;11.536;2023-12-20T15:03:02;6.90;99.90
3816;DHT22;1923;48.154;11.536;2023-12-20T15:05:32;6.90;99.90
3816;DHT22;1923;48.154;11.536;2023-12-20T15:08:00;6.90;99.90
3816;DHT22;1923;48.154;11.536;2023-12-20T15:10:28;6.90;99.90
3816;DHT22;1923;48.154;11.536;2023-12-20T15:12:57;6.80;99.90
3816;DHT22;1923;48.154;11.536;2023-12-20T15:15:25;6.70;99.90
3816;DHT22;1923;48.154;11.536;2023-12-20T15:17:55;6.70;99.90
3816;DHT22;1923;48.154;11.536;2023-12-20T15:20:25;6.80;99.90
3816;DHT22;1923;48.154;11.536;2023-12-20T15:22:53;6.80;99.90
3816;DHT22;1923;48.154;11.536;2023-12-20T15:25:21;6.80;99.90
3816;DHT22;1923;48.154;11.536;2023-12-20T15:27:49;6.70;99.90
3816;DHT22;1923;48.154;11.536;2023-12-20T15:30:20;6.80;99.90
3816;DHT22;1923;48.154;11.536;2023-12-20T15:32:48;6.80;99.90
3816;DHT22;1923;48.154;11.536;2023-12-20T15:35:16;6.80;99.90
3816;DHT22;1923;48.154;11.536;2023-12-20T15:37:46;6.70;99.90
3816;DHT22;1923;48.154;11.536;2023-12-20T15:40:15;6.60;99.90
3816;DHT22;1923;48.154;11.536;2023-12-20T15:42:43;6.60;99.90
3816;DHT22;1923;48.154;11.536;2023-12-20T15:45:11;6.60;99.90
3816;DHT22;1923;48.154;11.536;2023-12-20T15:47:39;6.60;99.90
3816;DHT22;1923;48.154;11.536;2023-12-20T15:50:08;6.60;99.90
3816;DHT22;1923;48.154;11.536;2023-12-20T15:52:36;6.40;99.90
3816;DHT22;1923;48.154;11.536;2023-12-20T15:55:07;6.20;99.90
3816;DHT22;1923;48.154;11.536;2023-12-20T15:57:35;6.20;99.90
3816;DHT22;1923;48.154;11.536;2023-12-20T16:00:18;6.10;99.90
3816;DHT22;1923;48.154;11.536;2023-12-20T16:02:46;5.90;99.90
3816;DHT22;1923;48.154;11.536;2023-12-20T16:05:15;5.80;99.90
3816;DHT22;1923;48.154;11.536;2023-12-20T16:07:43;5.80;99.90
3816;DHT22;1923;48.154;11.536;2023-12-20T16:10:13;5.80;99.90
3816;DHT22;1923;48.154;11.536;2023-12-20T16:12:41;5.60;99.90
3816;DHT22;1923;48.154;11.536;2023-12-20T16:15:10;5.60;99.90
3816;DHT22;1923;48.154;11.536;2023-12-20T16:17:38;5.50;99.90